Time,TemperatureF,DewpointF,PressureIn,WindDirection,WindDirectionDegrees,WindSpeedMPH,WindSpeedGustMPH,Humidity,HourlyPrecipIn,Conditions,Clouds,dailyrainin,SoftwareType,DateUTC
2013-05-25 00:00:00,59.4,50.0,30.13,SW,221,0.0,0.0,71,0.00,,CLR,0.00,VWS V14.01,2013-05-25 04:00:00,
2013-05-25 00:02:00,59.4,50.0,30.13,SW,221,0.0,0.0,71,0.00,,CLR,0.00,VWS V14.01,2013-05-25 04:02:00,
2013-05-25 00:07:00,59.2,50.2,30.13,SW,221,0.0,0.0,72,0.00,,CLR,0.00,VWS V14.01,2013-05-25 04:07:00,
2013-05-25 00:15:00,59.0,49.6,30.13,SW,221,0.0,0.0,71,0.00,,CLR,0.00,VWS V14.01,2013-05-25 04:15:00,
2013-05-25 00:16:00,59.0,49.6,30.13,SW,221,0.0,0.0,71,0.00,,CLR,0.00,VWS V14.01,2013-05-25 04:16:00,
2013-05-25 00:26:00,59.1,49.3,30.14,SW,221,0.0,0.0,70,0.00,,CLR,0.00,VWS V14.01,2013-05-25 04:26:00,
2013-05-25 00:30:00,59.3,48.4,30.14,SW,221,0.0,0.0,67,0.00,,BKN032,0.00,VWS V14.01,2013-05-25 04:30:00,
2013-05-25 00:36:00,59.6,48.6,30.14,SW,221,0.0,0.0,67,0.00,,CLR,0.00,VWS V14.01,2013-05-25 04:36:00,
2013-05-25 00:45:00,60.0,47.8,30.14,SW,221,0.0,0.0,64,0.00,,CLR,0.00,VWS V14.01,2013-05-25 04:45:00,
2013-05-25 00:50:00,60.2,47.6,30.14,SW,221,0.0,0.0,63,0.00,,CLR,0.00,VWS V14.01,2013-05-25 04:50:00,
2013-05-25 01:00:00,60.5,47.4,30.14,SW,221,0.0,0.0,62,0.00,,CLR,0.00,VWS V14.01,2013-05-25 05:00:00,
2013-05-25 01:10:00,60.5,47.9,30.14,SW,221,0.0,0.0,63,0.00,,CLR,0.00,VWS V14.01,2013-05-25 05:10:00,
2013-05-25 01:15:00,60.3,47.7,30.14,SW,221,0.0,0.0,63,0.00,,CLR,0.00,VWS V14.01,2013-05-25 05:15:00,
2013-05-25 01:24:00,60.2,48.0,30.14,SW,221,0.0,0.0,64,0.00,,CLR,0.00,VWS V14.01,2013-05-25 05:24:00,
2013-05-25 01:30:00,60.2,48.0,30.13,SW,221,0.0,0.0,64,0.00,,CLR,0.00,VWS V14.01,2013-05-25 05:30:00,
2013-05-25 01:39:00,60.0,48.2,30.14,SW,221,0.0,1.0,65,0.00,,CLR,0.00,VWS V14.01,2013-05-25 05:39:00,
2013-05-25 01:45:00,59.8,48.8,30.14,SW,221,0.0,1.0,67,0.00,,CLR,0.00,VWS V14.01,2013-05-25 05:45:00,
2013-05-25 01:53:00,59.1,48.2,30.14,SW,221,0.0,0.0,67,0.00,,CLR,0.00,VWS V14.01,2013-05-25 05:53:00,
2013-05-25 02:00:00,58.9,47.6,30.14,SW,221,0.0,1.0,66,0.00,,CLR,0.00,VWS V14.01,2013-05-25 06:00:00,
2013-05-25 02:07:00,58.7,47.8,30.15,SW,221,0.0,1.0,67,0.00,,CLR,0.00,VWS V14.01,2013-05-25 06:07:00,
2013-05-25 02:15:00,59.0,47.7,30.15,SW,221,0.0,1.0,66,0.00,,CLR,0.00,VWS V14.01,2013-05-25 06:15:00,
2013-05-25 02:22:00,59.0,47.3,30.15,SW,221,0.0,0.0,65,0.00,,CLR,0.00,VWS V14.01,2013-05-25 06:22:00,
2013-05-25 02:30:00,59.0,47.7,30.15,SW,221,0.0,0.0,66,0.00,,CLR,0.00,VWS V14.01,2013-05-25 06:30:00,
2013-05-25 02:36:00,59.0,46.8,30.15,SW,221,0.0,1.0,64,0.00,,CLR,0.00,VWS V14.01,2013-05-25 06:36:00,
2013-05-25 02:45:00,58.8,47.1,30.15,SW,221,0.0,1.0,65,0.00,,CLR,0.00,VWS V14.01,2013-05-25 06:45:00,
2013-05-25 02:51:00,58.6,47.3,30.15,SW,221,0.0,0.0,66,0.00,,CLR,0.00,VWS V14.01,2013-05-25 06:51:00,
2013-05-25 03:00:00,58.4,47.1,30.15,SW,221,0.0,1.0,66,0.00,,CLR,0.00,VWS V14.01,2013-05-25 07:00:00,
2013-05-25 03:05:00,58.3,47.4,30.15,SW,221,0.0,0.0,67,0.00,,CLR,0.00,VWS V14.01,2013-05-25 07:05:00,
2013-05-25 03:15:00,58.2,46.9,30.15,SW,224,0.0,1.0,66,0.00,,CLR,0.00,VWS V14.01,2013-05-25 07:15:00,
2013-05-25 03:25:00,58.3,47.0,30.15,SW,224,0.0,1.0,66,0.00,,CLR,0.00,VWS V14.01,2013-05-25 07:25:00,
2013-05-25 03:30:00,58.4,46.7,30.15,SW,234,0.0,1.0,65,0.00,,CLR,0.00,VWS V14.01,2013-05-25 07:30:00,
2013-05-25 03:39:00,58.7,46.2,30.15,West,275,0.0,3.0,63,0.00,,CLR,0.00,VWS V14.01,2013-05-25 07:39:00,
2013-05-25 03:45:00,59.0,46.4,30.15,WNW,298,0.0,3.0,63,0.00,,CLR,0.00,VWS V14.01,2013-05-25 07:45:00,
2013-05-25 03:54:00,59.0,46.4,30.16,WNW,298,0.0,1.0,63,0.00,,CLR,0.00,VWS V14.01,2013-05-25 07:54:00,
2013-05-25 04:00:00,58.8,46.2,30.16,WNW,298,0.0,1.0,63,0.00,,CLR,0.00,VWS V14.01,2013-05-25 08:00:00,
2013-05-25 04:08:00,58.5,46.0,30.17,WNW,298,0.0,0.0,63,0.00,,CLR,0.00,VWS V14.01,2013-05-25 08:08:00,
2013-05-25 04:15:00,58.4,46.3,30.17,WNW,298,0.0,1.0,64,0.00,,CLR,0.00,VWS V14.01,2013-05-25 08:15:00,
2013-05-25 04:23:00,58.2,46.1,30.16,WNW,298,0.0,0.0,64,0.00,,CLR,0.00,VWS V14.01,2013-05-25 08:23:00,
2013-05-25 04:30:00,58.0,46.3,30.17,WNW,298,0.0,0.0,65,0.00,,CLR,0.00,VWS V14.01,2013-05-25 08:30:00,
2013-05-25 04:37:00,57.7,46.4,30.17,NW,311,0.0,4.0,66,0.00,,CLR,0.00,VWS V14.01,2013-05-25 08:37:00,
2013-05-25 04:45:00,57.5,46.2,30.17,NW,310,0.0,4.0,66,0.00,,CLR,0.00,VWS V14.01,2013-05-25 08:45:00,
2013-05-25 04:52:00,57.3,46.5,30.17,NW,311,0.0,0.0,67,0.00,,CLR,0.00,VWS V14.01,2013-05-25 08:52:00,
2013-05-25 05:00:00,57.0,46.2,30.18,NW,311,0.0,1.0,67,0.00,,CLR,0.00,VWS V14.01,2013-05-25 09:00:00,
2013-05-25 05:06:00,56.9,46.1,30.18,NW,311,0.0,0.0,67,0.00,,CLR,0.00,VWS V14.01,2013-05-25 09:06:00,
2013-05-25 05:15:00,56.8,46.4,30.19,NW,311,0.0,1.0,68,0.00,,CLR,0.00,VWS V14.01,2013-05-25 09:15:00,
2013-05-25 05:21:00,56.7,46.3,30.19,NW,310,0.0,0.0,68,0.00,,CLR,0.00,VWS V14.01,2013-05-25 09:21:00,
2013-05-25 05:30:00,56.4,45.6,30.19,NW,311,0.0,0.0,67,0.00,,CLR,0.00,VWS V14.01,2013-05-25 09:30:00,
2013-05-25 05:40:00,56.1,45.7,30.19,NW,311,0.0,2.0,68,0.00,,CLR,0.00,VWS V14.01,2013-05-25 09:40:00,
2013-05-25 05:45:00,56.0,45.6,30.20,NW,310,0.0,2.0,68,0.00,,CLR,0.00,VWS V14.01,2013-05-25 09:45:00,
2013-05-25 05:54:00,55.8,45.4,30.20,NW,311,0.0,1.0,68,0.00,,CLR,0.00,VWS V14.01,2013-05-25 09:54:00,
2013-05-25 06:00:00,55.7,45.7,30.20,NW,311,0.0,1.0,69,0.00,,CLR,0.00,VWS V14.01,2013-05-25 10:00:00,
2013-05-25 06:09:00,55.6,45.2,30.21,NW,311,0.0,1.0,68,0.00,,CLR,0.00,VWS V14.01,2013-05-25 10:09:00,
2013-05-25 06:15:00,55.5,44.7,30.21,NW,311,0.0,1.0,67,0.00,,CLR,0.00,VWS V14.01,2013-05-25 10:15:00,
2013-05-25 06:23:00,55.3,44.5,30.21,NNW,341,0.0,0.0,67,0.00,,CLR,0.00,VWS V14.01,2013-05-25 10:23:00,
2013-05-25 06:30:00,55.2,44.8,30.21,NNW,341,0.0,0.0,68,0.00,,CLR,0.00,VWS V14.01,2013-05-25 10:30:00,
2013-05-25 06:38:00,54.9,44.9,30.22,NNW,341,0.0,0.0,69,0.00,,CLR,0.00,VWS V14.01,2013-05-25 10:38:00,
2013-05-25 06:45:00,54.7,45.1,30.22,NNW,341,0.0,0.0,70,0.00,,CLR,0.00,VWS V14.01,2013-05-25 10:45:00,
2013-05-25 06:52:00,54.5,45.3,30.22,NNW,341,0.0,0.0,71,0.00,,CLR,0.00,VWS V14.01,2013-05-25 10:52:00,
2013-05-25 07:00:00,54.4,45.6,30.22,NNW,341,0.0,0.0,72,0.00,,CLR,0.00,VWS V14.01,2013-05-25 11:00:00,
2013-05-25 07:07:00,54.3,45.8,30.23,NNW,341,0.0,0.0,73,0.00,,CLR,0.00,VWS V14.01,2013-05-25 11:07:00,
2013-05-25 07:15:00,54.2,45.8,30.23,NNW,341,0.0,0.0,73,0.00,,CLR,0.00,VWS V14.01,2013-05-25 11:15:00,
2013-05-25 07:21:00,54.3,46.6,30.23,NNW,341,0.0,0.0,75,0.00,,CLR,0.00,VWS V14.01,2013-05-25 11:21:00,
2013-05-25 07:30:00,54.7,46.6,30.23,NNW,341,1.0,1.0,74,0.00,,CLR,0.00,VWS V14.01,2013-05-25 11:30:00,
2013-05-25 07:36:00,55.1,46.6,30.24,NNW,341,0.0,1.0,73,0.00,,CLR,0.00,VWS V14.01,2013-05-25 11:36:00,
2013-05-25 07:45:00,55.4,46.9,30.24,NNW,341,0.0,1.0,73,0.00,,CLR,0.00,VWS V14.01,2013-05-25 11:45:00,
2013-05-25 07:50:00,55.8,46.5,30.24,NNW,347,0.0,4.0,71,0.00,,CLR,0.00,VWS V14.01,2013-05-25 11:50:00,
2013-05-25 08:00:00,56.4,46.4,30.25,NNW,348,0.0,4.0,69,0.00,,CLR,0.00,VWS V14.01,2013-05-25 12:00:00,
2013-05-25 08:10:00,56.9,46.1,30.25,NNW,346,1.0,2.0,67,0.00,,CLR,0.00,VWS V14.01,2013-05-25 12:10:00,
2013-05-25 08:15:00,57.2,46.8,30.25,NNW,346,0.0,2.0,68,0.00,,CLR,0.00,VWS V14.01,2013-05-25 12:15:00,
2013-05-25 08:24:00,57.7,45.2,30.26,NNE,28,0.0,4.0,63,0.00,,CLR,0.00,VWS V14.01,2013-05-25 12:24:00,
2013-05-25 08:30:00,58.0,45.9,30.26,NNW,341,0.0,4.0,64,0.00,,CLR,0.00,VWS V14.01,2013-05-25 12:30:00,
2013-05-25 08:38:00,58.4,46.3,30.26,NNW,342,0.0,1.0,64,0.00,,CLR,0.00,VWS V14.01,2013-05-25 12:38:00,
2013-05-25 08:45:00,59.0,46.8,30.26,NNW,342,0.0,1.0,64,0.00,,CLR,0.00,VWS V14.01,2013-05-25 12:45:00,
2013-05-25 08:53:00,59.0,46.4,30.27,East,88,0.0,2.0,63,0.00,,CLR,0.00,VWS V14.01,2013-05-25 12:53:00,
2013-05-25 09:00:00,59.6,46.2,30.27,NE,51,2.0,4.0,61,0.00,,CLR,0.00,VWS V14.01,2013-05-25 13:00:00,
2013-05-25 09:07:00,60.2,45.8,30.27,WNW,298,0.0,6.0,59,0.00,,CLR,0.00,VWS V14.01,2013-05-25 13:07:00,
2013-05-25 09:15:00,60.7,45.8,30.27,WSW,253,0.0,6.0,58,0.00,,CLR,0.00,VWS V14.01,2013-05-25 13:15:00,
2013-05-25 09:22:00,61.1,45.8,30.27,SSE,152,0.0,4.0,57,0.00,,CLR,0.00,VWS V14.01,2013-05-25 13:22:00,
2013-05-25 09:30:00,61.7,46.8,30.27,ENE,71,0.0,6.0,58,0.00,,CLR,0.00,VWS V14.01,2013-05-25 13:30:00,
2013-05-25 09:36:00,62.2,45.8,30.27,ENE,67,0.0,2.0,55,0.00,,CLR,0.00,VWS V14.01,2013-05-25 13:36:00,
2013-05-25 09:45:00,62.9,46.0,30.27,ENE,65,0.0,4.0,54,0.00,,CLR,0.00,VWS V14.01,2013-05-25 13:45:00,
2013-05-25 09:51:00,63.5,45.6,30.27,NW,321,0.0,6.0,52,0.00,,CLR,0.00,VWS V14.01,2013-05-25 13:51:00,
2013-05-25 10:00:00,64.6,46.6,30.27,NNE,25,0.0,6.0,52,0.00,,CLR,0.00,VWS V14.01,2013-05-25 14:00:00,
2013-05-25 10:05:00,65.2,46.6,30.27,NW,319,2.0,8.0,51,0.00,,CLR,0.00,VWS V14.01,2013-05-25 14:05:00,
2013-05-25 10:15:00,66.1,46.9,30.27,NE,44,1.0,8.0,50,0.00,,CLR,0.00,VWS V14.01,2013-05-25 14:15:00,
2013-05-25 10:25:00,66.7,45.3,30.27,NW,315,0.0,6.0,46,0.00,,CLR,0.00,VWS V14.01,2013-05-25 14:25:00,
2013-05-25 10:30:00,67.0,45.0,30.27,NE,46,0.0,6.0,45,0.00,,CLR,0.00,VWS V14.01,2013-05-25 14:30:00,
2013-05-25 10:39:00,67.4,46.5,30.27,NNW,342,1.0,5.0,47,0.00,,CLR,0.00,VWS V14.01,2013-05-25 14:39:00,
2013-05-25 10:45:00,67.9,44.6,30.27,NW,319,4.0,8.0,43,0.00,,CLR,0.00,VWS V14.01,2013-05-25 14:45:00,
2013-05-25 10:54:00,68.3,44.3,30.27,East,101,1.0,6.0,42,0.00,,CLR,0.00,VWS V14.01,2013-05-25 14:54:00,
2013-05-25 11:00:00,68.5,45.8,30.26,NW,307,0.0,6.0,44,0.00,,CLR,0.00,VWS V14.01,2013-05-25 15:00:00,
2013-05-25 11:08:00,69.2,45.8,30.26,NE,34,3.0,5.0,43,0.00,,CLR,0.00,VWS V14.01,2013-05-25 15:08:00,
2013-05-25 11:15:00,69.4,45.3,30.26,ENE,78,0.0,5.0,42,0.00,,CLR,0.00,VWS V14.01,2013-05-25 15:15:00,
2013-05-25 11:23:00,69.4,46.6,30.26,NW,313,1.0,6.0,44,0.00,,CLR,0.00,VWS V14.01,2013-05-25 15:23:00,
2013-05-25 11:30:00,69.5,44.2,30.26,NE,55,0.0,6.0,40,0.00,,CLR,0.00,VWS V14.01,2013-05-25 15:30:00,
2013-05-25 11:37:00,69.6,45.5,30.26,NNW,330,5.0,5.0,42,0.00,,CLR,0.00,VWS V14.01,2013-05-25 15:37:00,
2013-05-25 11:45:00,69.9,45.2,30.25,SE,133,0.0,6.0,41,0.00,,CLR,0.00,VWS V14.01,2013-05-25 15:45:00,
2013-05-25 11:52:00,70.4,46.2,30.25,North,349,1.0,5.0,42,0.00,,CLR,0.00,VWS V14.01,2013-05-25 15:52:00,
2013-05-25 12:00:00,70.9,46.0,30.25,ENE,76,0.0,6.0,41,0.00,,CLR,0.00,VWS V14.01,2013-05-25 16:00:00,
2013-05-25 12:06:00,71.2,45.7,30.24,NE,49,1.0,4.0,40,0.00,,CLR,0.00,VWS V14.01,2013-05-25 16:06:00,
2013-05-25 12:15:00,71.3,46.4,30.25,NW,321,0.0,5.0,41,0.00,,CLR,0.00,VWS V14.01,2013-05-25 16:15:00,
2013-05-25 12:21:00,71.4,45.8,30.24,NNW,338,1.0,5.0,40,0.00,,CLR,0.00,VWS V14.01,2013-05-25 16:21:00,
2013-05-25 12:30:00,71.7,45.5,30.24,NNE,15,2.0,5.0,39,0.00,,CLR,0.00,VWS V14.01,2013-05-25 16:30:00,
2013-05-25 12:40:00,71.2,47.0,30.23,NNE,19,1.0,6.0,42,0.00,,CLR,0.00,VWS V14.01,2013-05-25 16:40:00,
2013-05-25 12:45:00,71.5,45.3,30.23,SE,130,0.0,6.0,39,0.00,,CLR,0.00,VWS V14.01,2013-05-25 16:45:00,
2013-05-25 12:54:00,71.5,43.9,30.23,WSW,251,0.0,5.0,37,0.00,,CLR,0.00,VWS V14.01,2013-05-25 16:54:00,
2013-05-25 13:00:00,72.1,46.5,30.23,WSW,239,0.0,5.0,40,0.00,,CLR,0.00,VWS V14.01,2013-05-25 17:00:00,
2013-05-25 13:09:00,73.3,46.9,30.23,NNW,327,1.0,5.0,39,0.00,,CLR,0.00,VWS V14.01,2013-05-25 17:09:00,
2013-05-25 13:15:00,73.8,46.6,30.23,NW,317,5.0,5.0,38,0.00,,CLR,0.00,VWS V14.01,2013-05-25 17:15:00,
2013-05-25 13:23:00,73.5,46.4,30.23,NE,34,1.0,5.0,38,0.00,,CLR,0.00,VWS V14.01,2013-05-25 17:23:00,
2013-05-25 13:30:00,73.4,44.1,30.23,East,91,0.0,5.0,35,0.00,,CLR,0.00,VWS V14.01,2013-05-25 17:30:00,
2013-05-25 13:38:00,73.9,45.3,30.23,NW,319,5.0,5.0,36,0.00,,CLR,0.00,VWS V14.01,2013-05-25 17:38:00,
2013-05-25 13:45:00,74.4,48.5,30.22,WNW,302,1.0,5.0,40,0.00,,CLR,0.00,VWS V14.01,2013-05-25 17:45:00,
2013-05-25 13:52:00,74.2,44.1,30.22,WNW,296,1.0,7.0,34,0.00,,CLR,0.00,VWS V14.01,2013-05-25 17:52:00,
2013-05-25 14:00:00,74.9,45.4,30.22,NW,313,2.0,7.0,35,0.00,,CLR,0.00,VWS V14.01,2013-05-25 18:00:00,
2013-05-25 14:07:00,74.9,44.7,30.21,NW,309,5.0,6.0,34,0.00,,CLR,0.00,VWS V14.01,2013-05-25 18:07:00,
2013-05-25 14:15:00,74.6,45.2,30.20,NE,41,0.0,6.0,35,0.00,,CLR,0.00,VWS V14.01,2013-05-25 18:15:00,
2013-05-25 14:21:00,75.2,44.9,30.19,NE,46,1.0,5.0,34,0.00,,CLR,0.00,VWS V14.01,2013-05-25 18:21:00,
2013-05-25 14:30:00,75.7,44.6,30.18,West,259,1.0,5.0,33,0.00,,CLR,0.00,VWS V14.01,2013-05-25 18:30:00,
2013-05-25 14:36:00,76.4,48.2,30.17,West,272,0.0,1.0,37,0.00,,CLR,0.00,VWS V14.01,2013-05-25 18:36:00,
2013-05-25 14:45:00,76.9,44.8,30.18,NNE,13,0.0,5.0,32,0.00,,CLR,0.00,VWS V14.01,2013-05-25 18:45:00,
2013-05-25 14:50:00,76.6,46.2,30.17,NNE,15,0.0,3.0,34,0.00,,CLR,0.00,VWS V14.01,2013-05-25 18:50:00,
2013-05-25 15:00:00,77.0,45.7,30.17,NW,304,3.0,6.0,33,0.00,,CLR,0.00,VWS V14.01,2013-05-25 19:00:00,
2013-05-25 15:10:00,77.9,46.5,30.17,North,9,2.0,2.0,33,0.00,,CLR,0.00,VWS V14.01,2013-05-25 19:10:00,
2013-05-25 15:15:00,78.1,45.0,30.17,North,9,0.0,2.0,31,0.00,,CLR,0.00,VWS V14.01,2013-05-25 19:15:00,
2013-05-25 15:24:00,78.5,46.2,30.16,WSW,237,0.0,4.0,32,0.00,,CLR,0.00,VWS V14.01,2013-05-25 19:24:00,
2013-05-25 15:30:00,78.7,45.6,30.15,NW,314,0.0,5.0,31,0.00,,CLR,0.00,VWS V14.01,2013-05-25 19:30:00,
2013-05-25 15:39:00,79.0,48.3,30.16,NW,315,0.0,3.0,34,0.00,,CLR,0.00,VWS V14.01,2013-05-25 19:39:00,
2013-05-25 15:45:00,79.3,49.3,30.15,WSW,255,1.0,5.0,35,0.00,,CLR,0.00,VWS V14.01,2013-05-25 19:45:00,
2013-05-25 15:53:00,79.0,48.3,30.15,SW,223,0.0,1.0,34,0.00,,CLR,0.00,VWS V14.01,2013-05-25 19:53:00,
2013-05-25 16:00:00,79.4,49.4,30.15,WSW,254,0.0,2.0,35,0.00,,CLR,0.00,VWS V14.01,2013-05-25 20:00:00,
2013-05-25 16:07:00,79.1,48.3,30.15,NW,317,1.0,4.0,34,0.00,,CLR,0.00,VWS V14.01,2013-05-25 20:07:00,
2013-05-25 16:15:00,79.0,47.5,30.15,NW,317,1.0,4.0,33,0.00,,CLR,0.00,VWS V14.01,2013-05-25 20:15:00,
2013-05-25 16:22:00,79.7,47.3,30.14,NNW,347,5.0,5.0,32,0.00,,CLR,0.00,VWS V14.01,2013-05-25 20:22:00,
2013-05-25 16:30:00,80.0,46.7,30.15,NW,322,3.0,5.0,31,0.00,,CLR,0.00,VWS V14.01,2013-05-25 20:30:00,
2013-05-25 16:36:00,80.0,45.8,30.14,NNE,30,0.0,4.0,30,0.00,,CLR,0.00,VWS V14.01,2013-05-25 20:36:00,
2013-05-25 16:45:00,80.6,46.3,30.14,SE,140,0.0,4.0,30,0.00,,CLR,0.00,VWS V14.01,2013-05-25 20:45:00,
2013-05-25 16:51:00,81.1,46.8,30.14,WSW,242,0.0,2.0,30,0.00,,CLR,0.00,VWS V14.01,2013-05-25 20:51:00,
2013-05-25 17:00:00,80.8,44.7,30.14,NW,323,0.0,6.0,28,0.00,,CLR,0.00,VWS V14.01,2013-05-25 21:00:00,
2013-05-25 17:05:00,80.7,46.4,30.14,SW,236,0.0,2.0,30,0.00,,CLR,0.00,VWS V14.01,2013-05-25 21:05:00,
2013-05-25 17:15:00,80.4,46.2,30.14,SSW,213,0.0,2.0,30,0.00,,CLR,0.00,VWS V14.01,2013-05-25 21:15:00,
2013-05-25 17:25:00,81.2,46.0,30.14,WNW,284,0.0,4.0,29,0.00,,CLR,0.00,VWS V14.01,2013-05-25 21:25:00,
2013-05-25 17:30:00,81.2,46.0,30.14,WNW,299,0.0,4.0,29,0.00,,CLR,0.00,VWS V14.01,2013-05-25 21:30:00,
2013-05-25 17:39:00,80.8,45.6,30.13,WNW,300,0.0,2.0,29,0.00,,CLR,0.00,VWS V14.01,2013-05-25 21:39:00,
2013-05-25 17:45:00,79.8,45.6,30.13,WNW,299,2.0,2.0,30,0.00,,CLR,0.00,VWS V14.01,2013-05-25 21:45:00,
2013-05-25 17:54:00,78.6,46.3,30.13,NW,313,0.0,2.0,32,0.00,,CLR,0.00,VWS V14.01,2013-05-25 21:54:00,
2013-05-25 18:00:00,77.8,45.6,30.13,NW,313,0.0,2.0,32,0.00,,CLR,0.00,VWS V14.01,2013-05-25 22:00:00,
2013-05-25 18:08:00,77.3,46.0,30.13,NW,313,0.0,0.0,33,0.00,,CLR,0.00,VWS V14.01,2013-05-25 22:08:00,
2013-05-25 18:15:00,77.0,47.3,30.13,NW,313,0.0,1.0,35,0.00,,CLR,0.00,VWS V14.01,2013-05-25 22:15:00,
2013-05-25 18:23:00,76.7,45.5,30.13,NW,313,0.0,1.0,33,0.00,,CLR,0.00,VWS V14.01,2013-05-25 22:23:00,
2013-05-25 18:30:00,76.4,45.2,30.13,SSW,199,1.0,4.0,33,0.00,,CLR,0.00,VWS V14.01,2013-05-25 22:30:00,
2013-05-25 18:42:00,75.8,44.7,30.12,SSE,165,0.0,1.0,33,0.00,,CLR,0.00,VWS V14.01,2013-05-25 22:42:00,
2013-05-25 18:45:00,75.7,44.6,30.12,SSE,165,0.0,1.0,33,0.00,,BKN032,0.00,VWS V14.01,2013-05-25 22:45:00,
2013-05-25 18:52:00,75.6,45.3,30.12,SSE,165,0.0,0.0,34,0.00,,CLR,0.00,VWS V14.01,2013-05-25 22:52:00,
2013-05-25 19:00:00,75.3,45.0,30.12,South,174,0.0,3.0,34,0.00,,CLR,0.00,VWS V14.01,2013-05-25 23:00:00,
2013-05-25 19:06:00,75.3,46.5,30.12,South,174,0.0,0.0,36,0.00,,CLR,0.00,VWS V14.01,2013-05-25 23:06:00,
2013-05-25 19:15:00,75.0,47.7,30.12,South,173,0.0,0.0,38,0.00,,CLR,0.00,VWS V14.01,2013-05-25 23:15:00,
2013-05-25 19:21:00,74.6,47.3,30.13,South,174,0.0,0.0,38,0.00,,CLR,0.00,VWS V14.01,2013-05-25 23:21:00,
2013-05-25 19:30:00,73.8,49.3,30.13,South,174,0.0,0.0,42,0.00,,CLR,0.00,VWS V14.01,2013-05-25 23:30:00,
2013-05-25 19:35:00,73.4,48.9,30.13,South,174,0.0,0.0,42,0.00,,CLR,0.00,VWS V14.01,2013-05-25 23:35:00,
2013-05-25 19:45:00,72.6,50.7,30.13,South,174,0.0,0.0,46,0.00,,CLR,0.00,VWS V14.01,2013-05-25 23:45:00,
2013-05-25 19:55:00,71.8,51.6,30.13,South,174,0.0,0.0,49,0.00,,CLR,0.00,VWS V14.01,2013-05-25 23:55:00,
2013-05-25 20:00:00,71.3,52.3,30.13,South,174,0.0,0.0,51,0.00,,CLR,0.00,VWS V14.01,2013-05-26 00:00:00,
2013-05-25 20:09:00,70.5,51.5,30.13,South,174,0.0,0.0,51,0.00,,CLR,0.00,VWS V14.01,2013-05-26 00:09:00,
2013-05-25 20:15:00,70.0,51.1,30.13,South,174,0.0,0.0,51,0.00,,CLR,0.00,VWS V14.01,2013-05-26 00:15:00,
2013-05-25 20:24:00,69.3,50.9,30.13,South,174,0.0,0.0,52,0.00,,CLR,0.00,VWS V14.01,2013-05-26 00:24:00,
2013-05-25 20:30:00,68.7,52.4,30.13,South,179,0.0,1.0,56,0.00,,CLR,0.00,VWS V14.01,2013-05-26 00:30:00,
2013-05-25 20:38:00,67.5,52.2,30.13,South,180,0.0,0.0,58,0.00,,CLR,0.00,VWS V14.01,2013-05-26 00:38:00,
2013-05-25 20:45:00,66.7,51.5,30.13,South,179,0.0,0.0,58,0.00,,CLR,0.00,VWS V14.01,2013-05-26 00:45:00,
2013-05-25 20:52:00,65.9,51.2,30.13,South,179,0.0,0.0,59,0.00,,CLR,0.00,VWS V14.01,2013-05-26 00:52:00,
2013-05-25 21:00:00,65.4,51.2,30.13,South,179,0.0,0.0,60,0.00,,CLR,0.00,VWS V14.01,2013-05-26 01:00:00,
2013-05-25 21:07:00,64.9,50.7,30.14,South,180,0.0,0.0,60,0.00,,CLR,0.00,VWS V14.01,2013-05-26 01:07:00,
2013-05-25 21:15:00,64.3,51.9,30.14,South,180,0.0,0.0,64,0.00,,CLR,0.00,VWS V14.01,2013-05-26 01:15:00,
2013-05-25 21:21:00,63.9,52.3,30.14,South,180,0.0,0.0,66,0.00,,CLR,0.00,VWS V14.01,2013-05-26 01:21:00,
2013-05-25 21:30:00,63.3,52.6,30.14,South,180,0.0,0.0,68,0.00,,CLR,0.00,VWS V14.01,2013-05-26 01:30:00,
2013-05-25 21:36:00,63.0,52.3,30.14,South,179,0.0,0.0,68,0.00,,CLR,0.00,VWS V14.01,2013-05-26 01:36:00,
2013-05-25 21:45:00,62.5,51.8,30.15,South,179,0.0,0.0,68,0.00,,CLR,0.00,VWS V14.01,2013-05-26 01:45:00,
2013-05-25 21:50:00,62.2,51.1,30.15,South,180,0.0,0.0,67,0.00,,CLR,0.00,VWS V14.01,2013-05-26 01:50:00,
2013-05-25 22:00:00,61.7,50.6,30.15,South,180,0.0,0.0,67,0.00,,CLR,0.00,VWS V14.01,2013-05-26 02:00:00,
2013-05-25 22:10:00,61.3,51.5,30.15,South,180,0.0,0.0,70,0.00,,CLR,0.00,VWS V14.01,2013-05-26 02:10:00,
2013-05-25 22:15:00,61.2,52.5,30.15,South,180,0.0,0.0,73,0.00,,CLR,0.00,VWS V14.01,2013-05-26 02:15:00,
2013-05-25 22:24:00,61.1,53.5,30.15,South,180,0.0,0.0,76,0.00,,CLR,0.00,VWS V14.01,2013-05-26 02:24:00,
2013-05-25 22:30:00,60.9,53.3,30.15,South,180,0.0,0.0,76,0.00,,CLR,0.00,VWS V14.01,2013-05-26 02:30:00,
2013-05-25 22:39:00,60.5,52.5,30.15,South,179,0.0,0.0,75,0.00,,CLR,0.00,VWS V14.01,2013-05-26 02:39:00,
2013-05-25 22:45:00,60.2,52.3,30.15,South,180,0.0,0.0,75,0.00,,CLR,0.00,VWS V14.01,2013-05-26 02:45:00,
2013-05-25 22:53:00,59.8,51.9,30.15,South,179,0.0,0.0,75,0.00,,CLR,0.00,VWS V14.01,2013-05-26 02:53:00,
2013-05-25 23:00:00,59.5,51.2,30.15,South,179,0.0,0.0,74,0.00,,CLR,0.00,VWS V14.01,2013-05-26 03:00:00,
2013-05-25 23:08:00,59.1,50.8,30.16,South,180,0.0,0.0,74,0.00,,CLR,0.00,VWS V14.01,2013-05-26 03:08:00,
2013-05-25 23:15:00,59.0,51.8,30.15,South,179,0.0,0.0,77,0.00,,CLR,0.00,VWS V14.01,2013-05-26 03:15:00,
2013-05-25 23:22:00,59.0,52.5,30.15,South,180,0.0,0.0,79,0.00,,CLR,0.00,VWS V14.01,2013-05-26 03:22:00,
2013-05-25 23:30:00,59.0,52.8,30.15,South,180,0.0,0.0,80,0.00,,CLR,0.00,VWS V14.01,2013-05-26 03:30:00,
2013-05-25 23:37:00,58.9,52.8,30.15,South,180,0.0,0.0,80,0.00,,CLR,0.00,VWS V14.01,2013-05-26 03:37:00,
2013-05-25 23:45:00,58.5,52.4,30.14,South,180,0.0,0.0,80,0.00,,CLR,0.00,VWS V14.01,2013-05-26 03:45:00,
2013-05-25 23:51:00,58.2,51.7,30.14,South,179,0.0,0.0,79,0.00,,CLR,0.00,VWS V14.01,2013-05-26 03:51:00,